Brandon Bradley

Chefscout - Nashville SC
11 Mär 2027
Donnerstag
Verarbeitung

Persönlichkeit

Anpassungsfähigkeit (2) Ehrgeiz (16) Kontroverse (20) Loyalität (18) Druck (14) Professionalität (15) Fairness (9) Temperament (1)

Profil

Trainerstil Demokratisch
Lizenz Kontinentale A
Entschlossenheit 11
Menschenführung 7
Motivation 11
Disziplin 12
Arbeitszufriedenheit
50%
Ermüdung
0%
Rolle Chefscout
Gehalt 42.5K p/W
Vertrag 14.03.2027

Leistung

Verhalten Normal
Trainingseffektivität
18%
Spielerentwicklung
60%
Verletzungsprävention
40%
Taktische Umsetzung
55%

Letzte Ereignisse

Vertragsverhandlung begonnen jetzt
Nahm an einer Scouting-Besprechung teil jetzt
Empfahl ein Transferziel jetzt
Empfahl ein Transferziel jetzt
Vertragsverhandlung begonnen 7T her
Spiel beobachtet 7T her
Spiel beobachtet 7T her
Vertragsverhandlung begonnen 7T her

Aktuell beobachtet

152
Spieler Verein Status Fähigkeit Vertrauen Beobachtet Zuletzt beobachtet Letzte Stimme
Daniel Awuni Aduana Stars Aktiv 113 / 76 40% 1 02.03.2027 -
Othmane Maamma Watford Aktiv 132 / 133 40% 1 02.03.2027 -
Matvii Ponomarenko Dynamo Kyiv Aktiv 123 / 120 67% 2 21.02.2027 Befürworten
Chineme Chinonso Ikorodu City Aktiv 75 / 112 40% 1 21.02.2027 -
Paul Rothrock Seattle Sounders Aktiv 113 / 98 48% 1 19.02.2027 -
Sidiki Chérif Coventry City Aktiv 135 / 145 40% 1 19.02.2027 -
Valentyn Morhun Kolos Aktiv 110 / 108 40% 2 16.02.2027 -
Tarek Bousseder ES Setif Aktiv 93 / 111 40% 1 16.02.2027 -
Pablo Solari Galatasaray Verhandlung 128 / 128 68% 1 14.02.2027 Befürworten
Daniil Frolkin Fakel Aktiv 109 / 110 40% 5 12.02.2027 -
Edoardo Corvi Parma Aktiv 146 / 143 40% 2 12.02.2027 -
Zach Hemming Chesterfield Aktiv 99 / 117 40% 1 12.02.2027 -
Lukas Jensen Millwall Aktiv 138 / 117 40% 1 12.02.2027 -
Gift Hlatshwayo Free State Stars Aktiv 104 / 121 40% 3 11.02.2027 -
Wyll Stanway Barrow AFC Aktiv 92 / 110 40% 1 11.02.2027 -
Alagie Wally Veres Aktiv 71 / 101 40% 1 11.02.2027 Mehr Infos nötig
Rocco Vata Watford Aktiv 139 / 138 40% 1 11.02.2027 -
Alfie Whiteman Newport County Aktiv 101 / 108 40% 1 08.02.2027 -
Radek Vítek Middlesbrough Aktiv 122 / 120 40% 1 08.02.2027 -
Michael Cooper Sheffield United Aktiv 134 / 142 40% 1 08.02.2027 -
Bart Verbruggen Brighton Aktiv 139 / 144 40% 1 08.02.2027 -
Egil Selvik Watford Aktiv 121 / 134 40% 2 06.02.2027 -
Max O'Leary West Bromwich Albion Aktiv 125 / 107 40% 4 06.02.2027 Beobachten
Jacob Karlstrøm Anorthosis Aktiv 137 / 121 40% 3 05.02.2027 -
Stanley Mills Oxford United Aktiv 133 / 139 40% 1 05.02.2027 -
Loum Tchaouna Coventry City Aktiv 147 / 154 40% 1 05.02.2027 -
Sipho Chaine Orlando Pirates Aktiv 101 / 117 40% 4 04.02.2027 -
Nicolas Schmid Portsmouth Aktiv 117 / 120 40% 1 04.02.2027 -
Aynsley Pears Blackburn Rovers Aktiv 111 / 129 40% 1 02.02.2027 -
Ivor Pandur Hull City Aktiv 105 / 116 40% 1 02.02.2027 -
Bailey Peacock-Farrell Blackpool Aktiv 107 / 116 40% 1 01.02.2027 -
Teddy Sharman-Lowe Chelsea Aktiv 121 / 107 40% 1 01.02.2027 Mehr Infos nötig
Simone Scuffet Pisa Aktiv 128 / 135 40% 2 30.01.2027 -
Will Dennis Milton Keynes Dons Aktiv 88 / 104 40% 2 30.01.2027 -
Josh Tymon Swansea City Aktiv 122 / 109 40% 1 30.01.2027 -
Aaron Connolly Leyton Orient Aktiv 129 / 138 40% 1 30.01.2027 -
Kostantis Tzolakis Hull City Aktiv 146 / 124 40% 1 28.01.2027 -
Mark Travers Everton Aktiv 133 / 121 40% 1 28.01.2027 -
Viktor Johansson Stoke City Aktiv 116 / 125 40% 5 27.01.2027 -
Michele Cerofolini Bari Aktiv 122 / 142 40% 2 27.01.2027 -
George Wickens Lincoln City Aktiv 98 / 100 40% 2 26.01.2027 -
Daniel Iversen Preston Aktiv 127 / 110 40% 1 24.01.2027 -
Corey Addai Stockport County Aktiv 87 / 113 40% 1 23.01.2027 -
Juan Diego Castillo Vitoria Guimaraes Aktiv 103 / 115 40% 1 23.01.2027 -
Samuele Perisan Audace Cerignola Aktiv 131 / 120 40% 2 21.01.2027 -
Arijanet Murić Sassuolo Aktiv 143 / 139 40% 2 20.01.2027 -
Sebastián Meza Huracán Aktiv 112 / 142 40% 3 19.01.2027 -
Nicolás Sumavil Platense Aktiv 117 / 128 40% 5 19.01.2027 -
Lorenzo Palmisani Frosinone Aktiv 118 / 120 40% 2 19.01.2027 -
Justin Bijlow Genoa Aktiv 165 / 163 40% 1 19.01.2027 -
Oleksandr Saputin Poltava Aktiv 104 / 101 40% 2 18.01.2027 -
Francesco D'Alterio Ternana Aktiv 108 / 123 40% 1 18.01.2027 -
Arthur Okonkwo Wrexham Aktiv 140 / 115 40% 2 17.01.2027 -
Franco Romero Toluca Aktiv 123 / 134 40% 1 17.01.2027 -
Suleiman Camara Slovan Bratislava Aktiv 117 / 132 40% 1 17.01.2027 -
Ihor Krasnopir Polissia Aktiv 138 / 118 40% 1 15.01.2027 -
Kristjan Matošević Triestina Aktiv 100 / 114 40% 1 13.01.2027 -
Luca Dias Nimes Aktiv 88 / 104 40% 1 13.01.2027 -
Alessio Zerbin Frosinone Aktiv 136 / 133 40% 1 12.01.2027 -
Petar Stanić Ludogorets Aktiv 133 / 120 40% 1 12.01.2027 -
Brian Bustos Monopoli Aktiv 126 / 109 40% 1 10.01.2027 -
Fedor Lapoukhov CSKA Sofia Aktiv 109 / 109 40% 3 09.01.2027 -
Svetoslav Vutsov Levski Aktiv 129 / 125 40% 6 09.01.2027 -
Riccardo Gagno Vicenza Aktiv 105 / 112 40% 2 09.01.2027 -
David Sangaré Ryazan Aktiv 83 / 75 40% 1 08.01.2027 -
Roman Celentano FC Cincinnati Aktiv 135 / 132 40% 4 06.01.2027 -
Jack Bycroft Exeter City Aktiv 103 / 90 40% 1 06.01.2027 -
Mateusz Kochalski Dynamo Kyiv Aktiv 154 / 144 40% 4 04.01.2027 -
Dayne St. Clair Inter Miami CF Aktiv 121 / 129 40% 1 01.01.2027 -
Gianluca Saro Foggia Aktiv 127 / 106 40% 1 01.01.2027 -
Felipe Zenobio Tigre Aktiv 125 / 119 40% 3 30.12.2026 -
Jonathan Klinsmann Cesena Aktiv 136 / 108 40% 1 30.12.2026 -
Angus Gunn San Jose Earthquakes Aktiv 136 / 130 40% 3 29.12.2026 -
Agustín Lastra Estudiantes Aktiv 117 / 97 40% 2 29.12.2026 -
Richard Ludha MFK Skalica Aktiv 124 / 127 40% 2 27.12.2026 -
David Volk Dinamo Makhachkala Aktiv 96 / 111 40% 3 25.12.2026 -
Patrik Demjén MTK Budapest Aktiv 117 / 109 40% 2 25.12.2026 -
Bernard Sulemana Hasaacas Aktiv 77 / 101 40% 1 21.12.2026 -
Lukas Gütlbauer Wolfsberger AC Aktiv 96 / 131 40% 1 20.12.2026 -
Franko Kolić Istra 1961 Aktiv 119 / 121 40% 1 19.12.2026 -
Fiacre Ntwari Kaizer Chiefs Aktiv 115 / 103 40% 3 18.12.2026 -
Bojan Milosavljević Lokomotiv Plovdiv Aktiv 95 / 108 40% 1 16.12.2026 -
Iván Arboleda Sarmiento Aktiv 108 / 113 40% 1 16.12.2026 -
Patrick Schulte Columbus Crew Aktiv 110 / 126 40% 5 15.12.2026 -
Anton Zhylkin Karpaty Aktiv 114 / 118 40% 1 15.12.2026 -
Martin Velichkov Lokomotiv Sofia Aktiv 125 / 110 40% 3 13.12.2026 -
Roberto Ramírez Godoy Cruz Aktiv 102 / 107 40% 1 13.12.2026 -
Vincent Edafe Warri Wolves Aktiv 76 / 113 40% 1 13.12.2026 -
Marios Siabanis Volos NPS Aktiv 98 / 101 40% 1 10.12.2026 -
Reda Khadra Qarabag Aktiv 118 / 135 40% 1 09.12.2026 -
Evgeny Staver Rubin Aktiv 111 / 128 40% 1 02.12.2026 -
Matt Freese New York City Aktiv 118 / 120 40% 8 01.12.2026 -
Enzo Vázquez Central Norte Aktiv 93 / 123 40% 1 01.12.2026 -
Nahuel Galardi Maipú Aktiv 89 / 119 40% 2 27.11.2026 -
Lautaro Petruchi Gimnasia y Esgrima Aktiv 93 / 108 40% 1 25.11.2026 -
Melusi Buthelezi Orlando Pirates Aktiv 108 / 123 40% 1 25.11.2026 -
Adam Jakubech MFK Michalovce Aktiv 93 / 115 40% 3 22.11.2026 -
Samuel Brolin Kalmar FF Aktiv 132 / 102 40% 1 22.11.2026 -
Žiga Frelih NK Celje Aktiv 126 / 125 40% 2 20.11.2026 -
Mirko Kos Admira Wacker Aktiv 118 / 110 40% 1 20.11.2026 -
Bradley Mabunda SuperSport United Aktiv 117 / 98 40% 3 16.11.2026 -
Drake Callender Minnesota United FC Aktiv 129 / 124 40% 2 15.11.2026 -
James Pantemis Portland Timbers Aktiv 117 / 107 40% 3 14.11.2026 -
Heorhii Yermakov Metalist Aktiv 94 / 118 40% 3 14.11.2026 -
Lucas Bruera Carabobo Aktiv 129 / 113 40% 2 13.11.2026 -
Ľubomír Belko Viking Aktiv 113 / 127 40% 1 13.11.2026 -
Diego Romero Universitario Aktiv 114 / 133 40% 3 12.11.2026 -
Oscar Hedvall Valerenga Aktiv 119 / 130 40% 3 11.11.2026 -
Martin Zlomislić Qarabag Aktiv 117 / 131 40% 3 11.11.2026 -
Matevž Vidovšek Olimpija Ljubljana Aktiv 105 / 102 40% 2 09.11.2026 -
Martin Vantruba Spartak Trnava Aktiv 113 / 118 40% 1 09.11.2026 -
Mandla Erasmus SuperSport United Aktiv 115 / 127 40% 1 05.11.2026 -
Jay Stansfield Birmingham Aktiv 107 / 110 40% 1 05.11.2026 -
Ruslan Neshcheret Dynamo Kyiv Aktiv 107 / 106 40% 1 05.11.2026 -
CJ dos Santos San Diego Football Club Aktiv 111 / 114 40% 1 05.11.2026 -
Kyrylo Fesiun Shakhtar Aktiv 111 / 117 40% 2 04.11.2026 -
Pontus Dahlberg Lillestrom Aktiv 93 / 114 40% 1 02.11.2026 -
Leopold Wahlstedt Rosenborg Aktiv 110 / 130 40% 2 01.11.2026 -
Andras Nikolic Haladas Aktiv 112 / 124 40% 1 01.11.2026 -
Luke Thomas Leicester City Aktiv 113 / 121 40% 1 31.10.2026 -
Humphrey Katasi AFC Leopards Aktiv 100 / 89 40% 2 27.10.2026 -
John Pulskamp Sporting Kansas City Aktiv 102 / 117 40% 3 27.10.2026 -
Santiago Silva CFR Cluj Aktiv 129 / 110 40% 1 27.10.2026 -
John Amah Plateau United Aktiv 91 / 82 40% 1 27.10.2026 -
Conrad Wallem Austria Wien Aktiv 112 / 134 40% 1 26.10.2026 -
Daniil Khudyakov Sturm Graz Aktiv 135 / 125 40% 2 25.10.2026 -
Metod Jurhar Voluntari Aktiv 99 / 129 40% 1 23.10.2026 -
Renato Solís Sporting Cristal Aktiv 108 / 115 40% 2 22.10.2026 -
Luka Gavran Toronto FC Aktiv 96 / 116 40% 2 20.10.2026 -
Ameh Godwin Nasarawa United Aktiv 75 / 110 40% 2 16.10.2026 -
Dominik Takáč Slovan Bratislava Aktiv 117 / 139 40% 3 16.10.2026 -
Mykyta Turbaievskyi Zorya Aktiv 89 / 116 40% 1 15.10.2026 -
Osman Hadžikić Honved Aktiv 95 / 93 40% 2 13.10.2026 -
Filip Marschall Stevenage Aktiv 92 / 94 40% 1 11.10.2026 -
Ştefan Târnovanu FCSB Aktiv 126 / 129 40% 1 11.10.2026 -
JT Marcinkowski LA Galaxy Aktiv 96 / 109 40% 2 06.10.2026 -
Martin Trnovský Podbrezova Aktiv 96 / 119 40% 2 05.10.2026 -
Mattias Lamhauge Stromsgodset Aktiv 115 / 107 40% 1 05.10.2026 -
Sébastien Cibois Portimonense Aktiv 91 / 100 40% 1 04.10.2026 -
Denys Ihnatenko Livyi Bereh Aktiv 88 / 126 40% 1 03.10.2026 -
Abraham Afful BA All Stars Aktiv 89 / 91 40% 1 02.10.2026 -
Cristopher Varela Deportivo La Guaira Aktiv 113 / 131 40% 2 30.09.2026 -
Ikenna Benjamin Bayelsa United Aktiv 80 / 80 40% 1 30.09.2026 -
Elliot Panicco Odd Aktiv 93 / 101 40% 1 27.09.2026 -
Angel Zamudio Sport Huancayo Aktiv 137 / 114 40% 2 25.09.2026 -
Ellery Balcombe Brentford Aktiv 88 / 123 40% 2 23.09.2026 -
Daniel Naumov Botev Plovdiv Aktiv 109 / 101 40% 1 22.09.2026 -
Jody February Mamelodi Sundowns Aktiv 90 / 99 40% 1 19.09.2026 -
Rustam Yatimov Rostov Aktiv 98 / 128 40% 1 18.09.2026 -
Callum Olusesi Tottenham Aktiv 122 / 96 40% 1 18.09.2026 -
Divine Chidera Rangers International Aktiv 93 / 101 40% 1 15.09.2026 -
Elias Hadaya Sandefjord Aktiv 98 / 119 40% 1 13.09.2026 -